createdAt,value
2018-11-05T00:01:43.211Z,7.60
2018-11-05T00:04:11.795Z,7.60
2018-11-05T00:06:40.187Z,7.50
2018-11-05T00:09:10.818Z,7.50
2018-11-05T00:11:39.519Z,7.50
2018-11-05T00:14:08.744Z,7.50
2018-11-05T00:16:37.407Z,7.60
2018-11-05T00:19:06.099Z,7.50
2018-11-05T00:21:34.459Z,7.50
2018-11-05T00:24:03.224Z,7.50
2018-11-05T00:26:31.950Z,7.50
2018-11-05T00:29:00.527Z,7.50
2018-11-05T00:31:28.939Z,7.50
2018-11-05T00:33:57.308Z,7.60
2018-11-05T00:36:25.650Z,7.60
2018-11-05T00:38:54.035Z,7.60
2018-11-05T00:41:22.429Z,7.60
2018-11-05T00:43:50.851Z,7.60
2018-11-05T00:46:19.176Z,7.50
2018-11-05T00:48:47.667Z,7.50
2018-11-05T00:51:16.266Z,7.50
2018-11-05T00:53:45.028Z,7.50
2018-11-05T00:56:13.443Z,7.50
2018-11-05T00:58:42.379Z,7.50
2018-11-05T01:01:11.158Z,7.40
2018-11-05T01:03:39.910Z,7.30
2018-11-05T01:06:08.649Z,7.30
2018-11-05T01:08:37.474Z,7.40
2018-11-05T01:11:06.427Z,7.40
2018-11-05T01:13:35.055Z,7.40
2018-11-05T01:16:03.616Z,7.40
2018-11-05T01:18:32.219Z,7.40
2018-11-05T01:21:01.172Z,7.30
2018-11-05T01:23:29.751Z,7.30
2018-11-05T01:25:58.275Z,7.30
2018-11-05T01:28:26.959Z,7.40
2018-11-05T01:30:55.931Z,7.30
2018-11-05T01:33:24.549Z,7.30
2018-11-05T01:35:52.903Z,7.30
2018-11-05T01:38:21.323Z,7.40
2018-11-05T01:40:50.047Z,7.40
2018-11-05T01:43:18.771Z,7.40
2018-11-05T01:45:47.487Z,7.40
2018-11-05T01:48:16.071Z,7.30
2018-11-05T01:50:44.530Z,7.30
2018-11-05T01:53:13.179Z,7.30
2018-11-05T01:55:41.903Z,7.40
2018-11-05T01:58:10.867Z,7.40
2018-11-05T02:00:39.616Z,7.40
2018-11-05T02:03:08.203Z,7.40
2018-11-05T02:05:36.656Z,7.40
2018-11-05T02:08:05.427Z,7.40
2018-11-05T02:10:34.039Z,7.40
2018-11-05T02:13:02.612Z,7.30
2018-11-05T02:15:31.871Z,7.30
2018-11-05T02:18:00.275Z,7.30
2018-11-05T02:20:28.759Z,7.30
2018-11-05T02:22:57.355Z,7.30
2018-11-05T02:25:26.271Z,7.40
2018-11-05T02:27:54.713Z,7.40
2018-11-05T02:30:23.114Z,7.30
2018-11-05T02:32:51.907Z,7.10
2018-11-05T02:35:20.304Z,7.20
2018-11-05T02:37:48.982Z,7.30
2018-11-05T02:40:19.910Z,7.30
2018-11-05T02:42:48.780Z,7.30
2018-11-05T02:45:18.366Z,7.20
2018-11-05T02:47:46.994Z,7.30
2018-11-05T02:50:15.962Z,7.30
2018-11-05T02:52:45.243Z,7.30
2018-11-05T02:55:14.023Z,7.40
2018-11-05T02:57:42.638Z,7.40
2018-11-05T03:00:13.307Z,7.40
2018-11-05T03:02:42.322Z,7.40
2018-11-05T03:05:14.057Z,7.40
2018-11-05T03:07:43.250Z,7.40
2018-11-05T03:10:12.295Z,7.30
2018-11-05T03:12:41.481Z,7.30
2018-11-05T03:15:12.439Z,7.30
2018-11-05T03:17:41.039Z,7.30
2018-11-05T03:20:10.854Z,7.20
2018-11-05T03:22:40.351Z,7.20
2018-11-05T03:25:09.237Z,7.20
2018-11-05T03:27:38.032Z,7.20
2018-11-05T03:30:08.987Z,7.20
2018-11-05T03:32:37.637Z,7.10
2018-11-05T03:35:07.939Z,7.10
2018-11-05T03:37:36.511Z,7.10
2018-11-05T03:40:05.914Z,7.10
2018-11-05T03:42:34.489Z,7.10
2018-11-05T03:45:03.447Z,7.10
2018-11-05T03:47:32.419Z,7.10
2018-11-05T03:50:00.922Z,7.10
2018-11-05T03:52:29.542Z,7.20
2018-11-05T03:54:58.117Z,7.20
2018-11-05T03:57:26.499Z,7.20
2018-11-05T03:59:54.999Z,7.20
2018-11-05T04:02:24.134Z,7.20
2018-11-05T04:04:52.563Z,7.20
2018-11-05T04:07:21.055Z,7.20
2018-11-05T04:09:49.708Z,7.20
2018-11-05T04:12:18.304Z,7.30
2018-11-05T04:14:46.671Z,7.30
2018-11-05T04:17:15.151Z,7.30
2018-11-05T04:19:43.741Z,7.30
2018-11-05T04:22:12.423Z,7.40
2018-11-05T04:24:41.191Z,7.40
2018-11-05T04:27:10.177Z,7.40
2018-11-05T04:29:38.902Z,7.50
2018-11-05T04:32:07.367Z,7.50
2018-11-05T04:34:36.141Z,7.50
2018-11-05T04:37:04.784Z,7.60
2018-11-05T04:39:33.231Z,7.60
2018-11-05T04:42:01.732Z,7.70
2018-11-05T04:44:30.420Z,7.70
2018-11-05T04:46:58.999Z,7.70
2018-11-05T04:49:27.363Z,7.70
2018-11-05T04:51:55.851Z,7.70
2018-11-05T04:54:24.330Z,7.70
2018-11-05T04:56:53.188Z,7.70
2018-11-05T04:59:22.183Z,7.80
2018-11-05T05:01:50.703Z,7.80
2018-11-05T05:04:19.300Z,7.90
2018-11-05T05:06:47.862Z,7.90
2018-11-05T05:09:16.278Z,7.90
2018-11-05T05:11:44.731Z,7.90
2018-11-05T05:14:13.587Z,8.00
2018-11-05T05:16:42.378Z,8.00
2018-11-05T05:19:11.103Z,8.10
2018-11-05T05:21:39.680Z,8.20
2018-11-05T05:24:08.071Z,8.10
2018-11-05T05:26:36.535Z,8.20
2018-11-05T05:29:05.221Z,8.10
2018-11-05T05:31:33.849Z,8.10
2018-11-05T05:34:02.179Z,8.10
2018-11-05T05:36:30.663Z,8.10
2018-11-05T05:38:59.387Z,8.10
2018-11-05T05:41:28.032Z,8.10
2018-11-05T05:43:56.331Z,8.10
2018-11-05T05:46:25.095Z,8.20
2018-11-05T05:48:54.086Z,8.20
2018-11-05T05:51:22.798Z,8.20
2018-11-05T05:53:51.391Z,8.30
2018-11-05T05:56:19.880Z,8.30
2018-11-05T05:58:48.567Z,8.30
2018-11-05T06:01:17.499Z,8.30
2018-11-05T06:03:46.396Z,8.40
2018-11-05T06:06:15.081Z,8.30
2018-11-05T06:08:43.523Z,8.40
2018-11-05T06:11:11.896Z,8.40
2018-11-05T06:13:40.427Z,8.40
2018-11-05T06:16:09.907Z,8.40
2018-11-05T06:18:38.363Z,8.50
2018-11-05T06:21:07.299Z,8.50
2018-11-05T06:23:35.807Z,8.50
2018-11-05T06:26:04.699Z,8.60
2018-11-05T06:28:33.696Z,8.60
2018-11-05T06:31:02.275Z,8.60
2018-11-05T06:33:30.784Z,8.60
2018-11-05T06:35:59.726Z,8.70
2018-11-05T06:38:28.442Z,8.70
2018-11-05T06:40:57.154Z,8.70
2018-11-05T06:43:25.850Z,8.70
2018-11-05T06:45:54.522Z,8.70
2018-11-05T06:48:23.191Z,8.70
2018-11-05T06:50:51.835Z,8.80
2018-11-05T06:53:20.543Z,8.80
2018-11-05T06:55:49.428Z,8.80
2018-11-05T06:58:17.844Z,8.90
2018-11-05T07:00:46.600Z,8.90
2018-11-05T07:03:15.228Z,8.90
2018-11-05T07:05:43.999Z,9.00
2018-11-05T07:08:12.603Z,9.00
2018-11-05T07:10:40.994Z,9.00
2018-11-05T07:13:09.507Z,9.00
2018-11-05T07:15:38.039Z,9.00
2018-11-05T07:18:06.547Z,9.10
2018-11-05T07:20:35.090Z,9.10
2018-11-05T07:23:03.495Z,9.00
2018-11-05T07:25:32.233Z,9.10
2018-11-05T07:28:01.767Z,9.20
2018-11-05T07:30:30.179Z,9.20
2018-11-05T07:32:58.807Z,9.20
2018-11-05T07:35:27.216Z,9.30
2018-11-05T07:37:55.620Z,9.30
2018-11-05T07:40:24.076Z,9.30
2018-11-05T07:42:52.659Z,9.40
2018-11-05T07:45:22.317Z,9.40
2018-11-05T07:47:50.793Z,9.40
2018-11-05T07:50:20.285Z,9.50
2018-11-05T07:52:48.819Z,9.50
2018-11-05T07:55:18.725Z,9.60
2018-11-05T07:57:48.192Z,9.60
2018-11-05T08:00:22.652Z,9.50
2018-11-05T08:02:52.904Z,9.60
2018-11-05T08:05:22.296Z,9.50
2018-11-05T08:07:51.054Z,9.60
2018-11-05T08:10:19.961Z,9.60
2018-11-05T08:12:48.658Z,9.60
2018-11-05T08:15:18.725Z,9.50
2018-11-05T08:17:48.356Z,9.60
2018-11-05T08:20:16.607Z,9.60
2018-11-05T08:22:45.182Z,9.70
2018-11-05T08:25:14.227Z,9.70
2018-11-05T08:27:42.999Z,9.90
2018-11-05T08:30:21.528Z,9.90
2018-11-05T08:32:49.855Z,10.00
2018-11-05T08:35:18.556Z,10.00
2018-11-05T08:37:47.639Z,10.20
2018-11-05T08:40:19.945Z,10.20
2018-11-05T08:42:49.371Z,10.40
2018-11-05T08:45:19.383Z,10.50
2018-11-05T08:47:48.280Z,10.70
2018-11-05T08:50:18.032Z,10.80
2018-11-05T08:52:46.655Z,10.90
2018-11-05T08:55:16.818Z,11.00
2018-11-05T08:57:45.729Z,11.10
2018-11-05T09:00:22.245Z,11.10
2018-11-05T09:02:51.253Z,11.30
2018-11-05T09:05:20.260Z,11.40
2018-11-05T09:07:49.895Z,11.50
2018-11-05T09:10:18.971Z,11.60
2018-11-05T09:12:47.286Z,11.70
2018-11-05T09:15:17.233Z,11.90
2018-11-05T09:17:46.443Z,12.00
2018-11-05T09:20:15.887Z,12.10
2018-11-05T09:22:44.693Z,12.30
2018-11-05T09:25:13.808Z,12.40
2018-11-05T09:27:42.501Z,12.60
2018-11-05T09:30:21.959Z,12.70
2018-11-05T09:32:50.691Z,12.80
2018-11-05T09:35:19.172Z,13.00
2018-11-05T09:37:47.916Z,13.10
2018-11-05T09:40:18.001Z,13.20
2018-11-05T09:42:47.433Z,13.30
2018-11-05T09:45:18.984Z,13.40
2018-11-05T09:47:47.644Z,13.50
2018-11-05T09:50:16.871Z,13.70
2018-11-05T09:52:45.647Z,14.00
2018-11-05T09:55:14.787Z,14.30
2018-11-05T09:57:43.298Z,14.40
2018-11-05T10:00:16.012Z,14.60
2018-11-05T10:02:50.215Z,14.70
2018-11-05T10:05:18.746Z,14.90
2018-11-05T10:07:47.167Z,15.10
2018-11-05T10:10:16.367Z,15.20
2018-11-05T10:12:45.199Z,15.30
2018-11-05T10:15:14.798Z,15.40
2018-11-05T10:17:43.235Z,15.30
2018-11-05T10:20:14.190Z,15.30
2018-11-05T10:22:42.926Z,15.30
2018-11-05T10:25:12.004Z,15.20
2018-11-05T10:27:40.494Z,15.10
2018-11-05T10:30:12.448Z,15.10
2018-11-05T10:32:41.501Z,14.90
2018-11-05T10:35:10.540Z,14.90
2018-11-05T10:37:39.424Z,14.70
2018-11-05T10:40:12.709Z,14.60
2018-11-05T10:42:42.092Z,14.50
2018-11-05T10:45:12.149Z,14.50
2018-11-05T10:47:40.951Z,14.40
2018-11-05T10:50:10.423Z,14.40
2018-11-05T10:52:39.066Z,14.30
2018-11-05T10:55:07.926Z,14.40
2018-11-05T10:57:36.910Z,14.30
2018-11-05T11:00:20.859Z,14.20
2018-11-05T11:02:54.865Z,14.20
2018-11-05T11:05:24.277Z,14.30
2018-11-05T11:07:54.075Z,14.10
2018-11-05T11:10:23.059Z,14.00
2018-11-05T11:12:51.526Z,13.90
2018-11-05T11:15:20.566Z,13.80
2018-11-05T11:17:49.202Z,14.10
2018-11-05T11:20:17.752Z,14.00
2018-11-05T11:22:46.143Z,13.80
2018-11-05T11:25:14.814Z,13.90
2018-11-05T11:27:43.349Z,14.10
2018-11-05T11:30:14.108Z,14.00
2018-11-05T11:32:43.446Z,14.00
2018-11-05T11:35:12.363Z,13.90
2018-11-05T11:37:40.848Z,13.70
2018-11-05T11:40:12.015Z,13.80
2018-11-05T11:42:41.433Z,14.00
2018-11-05T11:45:10.503Z,14.20
2018-11-05T11:47:39.217Z,14.20
2018-11-05T11:50:09.547Z,14.40
2018-11-05T11:52:38.087Z,14.30
2018-11-05T11:55:07.911Z,14.10
2018-11-05T11:57:36.458Z,13.80
2018-11-05T12:00:05.750Z,13.80
2018-11-05T12:02:34.224Z,13.80
2018-11-05T12:05:03.010Z,13.70
2018-11-05T12:07:31.407Z,13.80
2018-11-05T12:09:59.770Z,13.90
2018-11-05T12:12:28.176Z,13.90
2018-11-05T12:14:57.099Z,13.80
2018-11-05T12:17:25.530Z,13.80
2018-11-05T12:19:54.335Z,13.50
2018-11-05T12:22:23.084Z,12.90
2018-11-05T12:24:51.662Z,12.70
2018-11-05T12:27:20.311Z,12.40
2018-11-05T12:29:48.681Z,12.40
2018-11-05T12:32:17.500Z,12.40
2018-11-05T12:34:45.922Z,12.40
2018-11-05T12:37:14.403Z,12.20
2018-11-05T12:39:42.827Z,12.30
2018-11-05T12:42:11.608Z,12.10
2018-11-05T12:44:40.431Z,11.90
2018-11-05T12:47:08.956Z,11.60
2018-11-05T12:49:38.023Z,11.70
2018-11-05T12:52:06.663Z,11.70
2018-11-05T12:54:35.328Z,11.70
2018-11-05T12:57:04.367Z,11.70
2018-11-05T12:59:33.774Z,11.70
2018-11-05T13:02:02.327Z,11.50
2018-11-05T13:04:31.088Z,11.50
2018-11-05T13:06:59.713Z,11.60
2018-11-05T13:09:28.338Z,11.60
2018-11-05T13:11:56.972Z,11.60
2018-11-05T13:14:25.343Z,11.50
2018-11-05T13:16:54.092Z,11.60
2018-11-05T13:19:22.776Z,11.50
2018-11-05T13:21:51.407Z,11.50
2018-11-05T13:24:19.771Z,11.50
2018-11-05T13:26:48.139Z,11.60
2018-11-05T13:29:17.310Z,11.70
2018-11-05T13:31:47.115Z,11.60
2018-11-05T13:34:16.609Z,11.60
2018-11-05T13:36:45.457Z,11.60
2018-11-05T13:39:13.758Z,11.70
2018-11-05T13:41:42.209Z,11.70
2018-11-05T13:44:11.173Z,11.70
2018-11-05T13:46:40.326Z,11.80
2018-11-05T13:49:09.445Z,11.70
2018-11-05T13:51:37.163Z,11.70
2018-11-05T13:54:06.100Z,11.60
2018-11-05T13:56:34.520Z,11.60
2018-11-05T13:59:02.952Z,11.50
2018-11-05T14:01:31.516Z,11.60
2018-11-05T14:04:00.075Z,11.60
2018-11-05T14:06:28.774Z,11.60
2018-11-05T14:08:57.727Z,11.70
2018-11-05T14:11:26.451Z,11.70
2018-11-05T14:13:55.039Z,11.70
2018-11-05T14:16:23.450Z,11.70
2018-11-05T14:18:52.162Z,11.70
2018-11-05T14:21:20.578Z,11.70
2018-11-05T14:23:49.174Z,11.70
2018-11-05T14:26:18.007Z,11.70
2018-11-05T14:28:46.803Z,11.70
2018-11-05T14:31:15.224Z,11.90
2018-11-05T14:33:43.695Z,11.80
2018-11-05T14:36:12.296Z,11.80
2018-11-05T14:38:41.273Z,11.80
2018-11-05T14:41:09.675Z,11.80
2018-11-05T14:43:38.149Z,11.80
2018-11-05T14:46:06.838Z,11.80
2018-11-05T14:48:35.567Z,11.80
2018-11-05T14:51:04.388Z,11.70
2018-11-05T14:53:32.879Z,11.80
2018-11-05T14:56:01.294Z,11.80
2018-11-05T14:58:29.896Z,11.90
2018-11-05T15:00:58.264Z,12.50
2018-11-05T15:03:26.603Z,13.10
2018-11-05T15:05:55.108Z,13.80
2018-11-05T15:08:23.671Z,14.20
2018-11-05T15:10:52.103Z,14.60
2018-11-05T15:13:20.451Z,14.30
2018-11-05T15:15:48.951Z,13.30
2018-11-05T15:18:17.639Z,13.70
2018-11-05T15:20:46.085Z,13.80
2018-11-05T15:23:14.578Z,14.00
2018-11-05T15:25:43.105Z,13.90
2018-11-05T15:28:13.120Z,13.60
2018-11-05T15:30:41.681Z,13.10
2018-11-05T15:33:10.239Z,13.20
2018-11-05T15:35:39.008Z,13.00
2018-11-05T15:38:07.915Z,12.90
2018-11-05T15:40:36.306Z,12.40
2018-11-05T15:43:05.053Z,12.30
2018-11-05T15:45:33.655Z,12.40
2018-11-05T15:48:02.427Z,12.40
2018-11-05T15:50:31.527Z,12.10
2018-11-05T15:53:00.394Z,12.10
2018-11-05T15:55:28.747Z,11.80
2018-11-05T15:57:57.479Z,11.70
2018-11-05T16:00:26.115Z,11.80
2018-11-05T16:02:57.107Z,11.70
2018-11-05T16:05:25.632Z,11.70
2018-11-05T16:07:54.110Z,11.70
2018-11-05T16:10:23.020Z,11.70
2018-11-05T16:12:51.495Z,11.50
2018-11-05T16:15:20.334Z,11.20
2018-11-05T16:17:49.135Z,11.00
2018-11-05T16:20:19.346Z,11.10
2018-11-05T16:22:48.891Z,11.10
2018-11-05T16:25:17.291Z,10.80
2018-11-05T16:27:46.079Z,10.80
2018-11-05T16:30:16.244Z,10.80
2018-11-05T16:32:45.219Z,10.70
2018-11-05T16:35:14.032Z,10.60
2018-11-05T16:37:42.695Z,10.60
2018-11-05T16:40:13.061Z,10.60
2018-11-05T16:42:41.835Z,10.50
2018-11-05T16:45:10.730Z,10.40
2018-11-05T16:47:39.812Z,10.40
2018-11-05T16:50:14.091Z,10.20
2018-11-05T16:52:42.639Z,10.20
2018-11-05T16:55:12.623Z,10.10
2018-11-05T16:57:41.914Z,10.10
2018-11-05T17:00:10.927Z,10.00
2018-11-05T17:02:39.806Z,10.00
2018-11-05T17:05:08.107Z,9.90
2018-11-05T17:07:36.726Z,9.90
2018-11-05T17:10:06.696Z,9.80
2018-11-05T17:12:35.455Z,9.80
2018-11-05T17:15:04.623Z,9.70
2018-11-05T17:17:33.619Z,9.60
2018-11-05T17:20:02.199Z,9.50
2018-11-05T17:22:30.691Z,9.50
2018-11-05T17:24:58.912Z,9.60
2018-11-05T17:27:27.699Z,9.60
2018-11-05T17:29:56.152Z,9.50
2018-11-05T17:32:24.699Z,9.60
2018-11-05T17:34:53.457Z,9.40
2018-11-05T17:37:22.079Z,9.30
2018-11-05T17:39:50.570Z,9.20
2018-11-05T17:42:19.147Z,9.20
2018-11-05T17:44:47.530Z,9.10
2018-11-05T17:47:15.970Z,9.20
2018-11-05T17:49:44.712Z,9.10
2018-11-05T17:52:13.376Z,9.00
2018-11-05T17:54:42.075Z,9.00
2018-11-05T17:57:11.042Z,9.00
2018-11-05T17:59:40.012Z,8.90
2018-11-05T18:02:11.060Z,8.80
2018-11-05T18:04:39.691Z,8.80
2018-11-05T18:07:08.290Z,8.80
2018-11-05T18:09:36.943Z,8.80
2018-11-05T18:12:05.532Z,8.70
2018-11-05T18:14:33.907Z,8.80
2018-11-05T18:17:02.326Z,8.70
2018-11-05T18:19:31.150Z,8.70
2018-11-05T18:21:59.695Z,8.70
2018-11-05T18:24:28.287Z,8.60
2018-11-05T18:26:56.874Z,8.60
2018-11-05T18:29:25.419Z,8.50
2018-11-05T18:31:53.792Z,8.50
2018-11-05T18:34:22.452Z,8.60
2018-11-05T18:36:50.924Z,8.40
2018-11-05T18:39:19.822Z,8.30
2018-11-05T18:41:48.236Z,8.40
2018-11-05T18:44:16.631Z,8.40
2018-11-05T18:46:45.111Z,8.40
2018-11-05T18:49:13.863Z,8.30
2018-11-05T18:51:42.561Z,8.40
2018-11-05T18:54:15.357Z,8.40
2018-11-05T18:56:44.316Z,8.50
2018-11-05T18:59:12.723Z,8.50
2018-11-05T19:01:41.137Z,8.60
2018-11-05T19:04:09.486Z,8.50
2018-11-05T19:06:37.871Z,8.40
2018-11-05T19:09:07.235Z,8.30
2018-11-05T19:11:35.847Z,8.30
2018-11-05T19:14:04.546Z,8.30
2018-11-05T19:16:32.949Z,8.10
2018-11-05T19:19:01.295Z,8.10
2018-11-05T19:21:29.987Z,8.20
2018-11-05T19:23:58.568Z,8.30
2018-11-05T19:26:27.174Z,8.10
2018-11-05T19:28:56.140Z,8.10
2018-11-05T19:31:25.130Z,8.00
2018-11-05T19:33:53.799Z,7.90
2018-11-05T19:36:22.423Z,7.90
2018-11-05T19:38:50.784Z,7.90
2018-11-05T19:41:20.219Z,8.00
2018-11-05T19:43:49.152Z,8.00
2018-11-05T19:46:17.762Z,8.00
2018-11-05T19:48:46.523Z,8.00
2018-11-05T19:51:15.419Z,8.00
2018-11-05T19:53:44.771Z,8.00
2018-11-05T19:56:13.272Z,8.00
2018-11-05T19:58:41.794Z,8.00
2018-11-05T20:01:10.221Z,8.10
2018-11-05T20:03:38.705Z,8.10
2018-11-05T20:06:07.447Z,8.30
2018-11-05T20:08:36.043Z,8.30
2018-11-05T20:11:05.004Z,8.40
2018-11-05T20:13:33.998Z,8.40
2018-11-05T20:16:02.843Z,8.40
2018-11-05T20:18:31.593Z,8.40
2018-11-05T20:21:00.002Z,8.20
2018-11-05T20:23:28.748Z,8.30
2018-11-05T20:25:57.247Z,8.30
2018-11-05T20:28:25.749Z,8.30
2018-11-05T20:30:54.457Z,8.40
2018-11-05T20:33:23.511Z,8.50
2018-11-05T20:35:51.805Z,8.50
2018-11-05T20:38:20.299Z,8.60
2018-11-05T20:40:49.028Z,8.60
2018-11-05T20:43:17.699Z,8.60
2018-11-05T20:45:46.132Z,8.60
2018-11-05T20:48:14.722Z,8.50
2018-11-05T20:50:43.627Z,8.60
2018-11-05T20:53:11.987Z,8.70
2018-11-05T20:55:40.361Z,8.70
2018-11-05T20:58:09.132Z,8.70
2018-11-05T21:00:37.773Z,8.70
2018-11-05T21:03:06.500Z,8.70
2018-11-05T21:05:35.115Z,8.80
2018-11-05T21:08:04.037Z,8.80
2018-11-05T21:10:32.600Z,8.60
2018-11-05T21:13:01.196Z,8.90
2018-11-05T21:15:29.579Z,8.90
2018-11-05T21:17:58.094Z,8.90
2018-11-05T21:20:26.663Z,8.90
2018-11-05T21:22:55.358Z,8.80
2018-11-05T21:25:23.767Z,8.80
2018-11-05T21:27:52.399Z,8.70
2018-11-05T21:30:21.353Z,8.70
2018-11-05T21:32:49.776Z,8.60
2018-11-05T21:35:19.449Z,8.50
2018-11-05T21:37:48.166Z,8.50
2018-11-05T21:40:17.607Z,8.50
2018-11-05T21:42:46.158Z,8.40
2018-11-05T21:45:15.345Z,8.40
2018-11-05T21:47:44.498Z,8.40
2018-11-05T21:50:14.563Z,8.50
2018-11-05T21:52:43.612Z,8.30
2018-11-05T21:55:12.627Z,8.50
2018-11-05T21:57:42.414Z,8.50
2018-11-05T22:00:16.560Z,8.70
2018-11-05T22:02:50.419Z,8.70
2018-11-05T22:05:19.099Z,8.80
2018-11-05T22:07:48.079Z,8.90
2018-11-05T22:10:16.968Z,9.00
2018-11-05T22:12:45.722Z,9.10
2018-11-05T22:15:14.419Z,9.10
2018-11-05T22:17:43.026Z,9.10
2018-11-05T22:20:12.170Z,9.10
2018-11-05T22:22:40.875Z,9.10
2018-11-05T22:25:09.986Z,9.20
2018-11-05T22:27:38.617Z,9.20
2018-11-05T22:30:09.223Z,9.10
2018-11-05T22:32:37.710Z,9.10
2018-11-05T22:35:06.239Z,9.10
2018-11-05T22:37:34.735Z,9.10
2018-11-05T22:40:04.035Z,9.10
2018-11-05T22:42:32.624Z,9.10
2018-11-05T22:45:00.831Z,9.10
2018-11-05T22:47:29.180Z,9.10
2018-11-05T22:49:57.658Z,9.10
2018-11-05T22:52:26.267Z,9.10
2018-11-05T22:54:54.939Z,9.00
2018-11-05T22:57:23.427Z,8.90
2018-11-05T22:59:52.192Z,8.90
2018-11-05T23:02:20.640Z,8.80
2018-11-05T23:04:49.651Z,8.80
2018-11-05T23:07:18.250Z,8.80
2018-11-05T23:09:47.574Z,8.80
2018-11-05T23:12:16.050Z,8.80
2018-11-05T23:14:44.743Z,8.80
2018-11-05T23:17:13.451Z,8.80
2018-11-05T23:19:42.106Z,8.80
2018-11-05T23:22:10.579Z,8.80
2018-11-05T23:24:39.171Z,8.90
2018-11-05T23:27:07.839Z,8.90
2018-11-05T23:29:36.560Z,8.90
2018-11-05T23:32:05.435Z,8.90
2018-11-05T23:34:33.836Z,8.90
2018-11-05T23:37:02.299Z,8.90
2018-11-05T23:39:31.077Z,9.10
2018-11-05T23:41:59.562Z,9.20
2018-11-05T23:44:28.051Z,9.40
2018-11-05T23:46:57.019Z,9.40
2018-11-05T23:49:25.655Z,9.50
2018-11-05T23:51:54.186Z,9.60
2018-11-05T23:54:22.795Z,9.70
2018-11-05T23:56:51.971Z,9.80
2018-11-05T23:59:20.366Z,9.80
